Storrie, California
Current Conditions -  °F | °C
As of 6:53 PM on Saturday 20 Dec 2014 (Local Time) from KOVE Reporting Station
Overcast Overcast  
Wind Chill: 54°   Ceiling: 3300
Heat Index: 54°   Visibility: 10mi
Dew Point: 51°   Wind: 10mph
Humidity: 90%   Direction: 120°ESE
Pressure: 30.24"   Gusts: NA
Location:  39.92°N, 121.32°W
Report Text: KOVE 210253Z AUTO 12009KT 10SM OVC033 12/11 A3024 RMK AO2 RAE0155 SLP242 P0000 60002 T01220106 51013
Loading
Personal Weather Stations






























Interactive Weather Map New forecast layout! Learn more

10-Day Weather Forecast

Advertisements
Track Severe Weather on mobile